sensor_id;sensor_type;location;lat;lon;timestamp;P1;durP1;ratioP1;P2;durP2;ratioP2
64875;SDS011;51369;49.862;9.908;2022-11-20T00:02:09;46.10;;;22.27;;
64875;SDS011;51369;49.862;9.908;2022-11-20T00:04:35;45.35;;;22.77;;
64875;SDS011;51369;49.862;9.908;2022-11-20T00:07:00;47.78;;;23.85;;
64875;SDS011;51369;49.862;9.908;2022-11-20T00:09:25;49.05;;;23.27;;
64875;SDS011;51369;49.862;9.908;2022-11-20T00:11:51;51.47;;;24.88;;
64875;SDS011;51369;49.862;9.908;2022-11-20T00:14:16;45.88;;;22.65;;
64875;SDS011;51369;49.862;9.908;2022-11-20T00:16:41;52.65;;;23.90;;
64875;SDS011;51369;49.862;9.908;2022-11-20T00:19:07;47.78;;;22.05;;
64875;SDS011;51369;49.862;9.908;2022-11-20T00:21:32;49.75;;;23.55;;
64875;SDS011;51369;49.862;9.908;2022-11-20T00:23:57;47.38;;;21.95;;
64875;SDS011;51369;49.862;9.908;2022-11-20T00:26:24;45.45;;;22.63;;
64875;SDS011;51369;49.862;9.908;2022-11-20T00:28:51;42.42;;;21.38;;
64875;SDS011;51369;49.862;9.908;2022-11-20T00:31:19;45.63;;;22.33;;
64875;SDS011;51369;49.862;9.908;2022-11-20T00:33:44;51.25;;;22.63;;
64875;SDS011;51369;49.862;9.908;2022-11-20T00:36:14;50.60;;;23.83;;
64875;SDS011;51369;49.862;9.908;2022-11-20T00:38:42;48.78;;;21.95;;
64875;SDS011;51369;49.862;9.908;2022-11-20T00:41:08;54.88;;;24.80;;
64875;SDS011;51369;49.862;9.908;2022-11-20T00:43:35;46.78;;;22.42;;
64875;SDS011;51369;49.862;9.908;2022-11-20T00:46:01;49.83;;;23.02;;
64875;SDS011;51369;49.862;9.908;2022-11-20T00:48:29;54.03;;;24.45;;
64875;SDS011;51369;49.862;9.908;2022-11-20T00:50:55;47.22;;;22.92;;
64875;SDS011;51369;49.862;9.908;2022-11-20T00:53:21;47.40;;;23.45;;
64875;SDS011;51369;49.862;9.908;2022-11-20T00:55:53;51.00;;;24.02;;
64875;SDS011;51369;49.862;9.908;2022-11-20T00:58:20;52.17;;;25.33;;
64875;SDS011;51369;49.862;9.908;2022-11-20T01:00:46;56.08;;;25.23;;
64875;SDS011;51369;49.862;9.908;2022-11-20T01:03:11;51.88;;;25.33;;
64875;SDS011;51369;49.862;9.908;2022-11-20T01:05:37;47.88;;;23.85;;
64875;SDS011;51369;49.862;9.908;2022-11-20T01:08:02;53.97;;;25.23;;
64875;SDS011;51369;49.862;9.908;2022-11-20T01:10:28;48.22;;;23.73;;
64875;SDS011;51369;49.862;9.908;2022-11-20T01:12:54;53.38;;;23.65;;
64875;SDS011;51369;49.862;9.908;2022-11-20T01:15:39;52.03;;;23.58;;
64875;SDS011;51369;49.862;9.908;2022-11-20T01:18:04;51.63;;;23.42;;
64875;SDS011;51369;49.862;9.908;2022-11-20T01:20:33;50.22;;;24.52;;
64875;SDS011;51369;49.862;9.908;2022-11-20T01:23:00;47.05;;;23.55;;
64875;SDS011;51369;49.862;9.908;2022-11-20T01:25:26;46.65;;;22.58;;
64875;SDS011;51369;49.862;9.908;2022-11-20T01:27:51;46.20;;;23.42;;
64875;SDS011;51369;49.862;9.908;2022-11-20T01:30:16;49.13;;;23.80;;
64875;SDS011;51369;49.862;9.908;2022-11-20T01:32:42;46.42;;;22.65;;
64875;SDS011;51369;49.862;9.908;2022-11-20T01:35:07;46.17;;;22.00;;
64875;SDS011;51369;49.862;9.908;2022-11-20T01:37:35;47.78;;;21.10;;
64875;SDS011;51369;49.862;9.908;2022-11-20T01:40:00;50.15;;;23.65;;
64875;SDS011;51369;49.862;9.908;2022-11-20T01:42:25;49.67;;;22.10;;
64875;SDS011;51369;49.862;9.908;2022-11-20T01:51:29;45.00;;;21.48;;
64875;SDS011;51369;49.862;9.908;2022-11-20T01:54:00;44.50;;;21.13;;
64875;SDS011;51369;49.862;9.908;2022-11-20T01:56:28;45.70;;;21.20;;
64875;SDS011;51369;49.862;9.908;2022-11-20T01:58:59;48.53;;;22.13;;
64875;SDS011;51369;49.862;9.908;2022-11-20T02:01:29;46.88;;;22.35;;
64875;SDS011;51369;49.862;9.908;2022-11-20T02:03:54;45.53;;;22.83;;
64875;SDS011;51369;49.862;9.908;2022-11-20T02:06:25;49.33;;;23.27;;
64875;SDS011;51369;49.862;9.908;2022-11-20T02:08:55;47.95;;;21.98;;
64875;SDS011;51369;49.862;9.908;2022-11-20T02:11:21;48.60;;;21.15;;
64875;SDS011;51369;49.862;9.908;2022-11-20T02:13:46;48.83;;;23.45;;
64875;SDS011;51369;49.862;9.908;2022-11-20T02:18:44;45.97;;;21.80;;
64875;SDS011;51369;49.862;9.908;2022-11-20T02:24:11;48.90;;;23.75;;
64875;SDS011;51369;49.862;9.908;2022-11-20T02:26:57;52.67;;;22.83;;
64875;SDS011;51369;49.862;9.908;2022-11-20T02:30:10;49.03;;;22.42;;
64875;SDS011;51369;49.862;9.908;2022-11-20T02:32:21;50.08;;;23.50;;
64875;SDS011;51369;49.862;9.908;2022-11-20T02:34:49;44.58;;;22.50;;
64875;SDS011;51369;49.862;9.908;2022-11-20T02:37:15;44.92;;;22.25;;
64875;SDS011;51369;49.862;9.908;2022-11-20T02:39:41;44.88;;;21.95;;
64875;SDS011;51369;49.862;9.908;2022-11-20T02:42:08;48.15;;;22.58;;
64875;SDS011;51369;49.862;9.908;2022-11-20T02:44:33;47.47;;;22.58;;
64875;SDS011;51369;49.862;9.908;2022-11-20T02:46:58;47.70;;;21.60;;
64875;SDS011;51369;49.862;9.908;2022-11-20T02:49:24;48.83;;;23.65;;
64875;SDS011;51369;49.862;9.908;2022-11-20T02:51:50;48.22;;;22.77;;
64875;SDS011;51369;49.862;9.908;2022-11-20T02:54:15;49.75;;;23.52;;
64875;SDS011;51369;49.862;9.908;2022-11-20T02:56:40;45.90;;;23.33;;
64875;SDS011;51369;49.862;9.908;2022-11-20T02:59:06;47.40;;;22.60;;
64875;SDS011;51369;49.862;9.908;2022-11-20T03:01:32;46.28;;;21.77;;
64875;SDS011;51369;49.862;9.908;2022-11-20T03:03:57;52.25;;;23.00;;
64875;SDS011;51369;49.862;9.908;2022-11-20T03:06:23;48.97;;;22.83;;
64875;SDS011;51369;49.862;9.908;2022-11-20T03:08:48;48.33;;;23.00;;
64875;SDS011;51369;49.862;9.908;2022-11-20T03:11:14;48.28;;;22.63;;
64875;SDS011;51369;49.862;9.908;2022-11-20T03:13:39;45.28;;;21.92;;
64875;SDS011;51369;49.862;9.908;2022-11-20T03:16:06;51.40;;;23.25;;
64875;SDS011;51369;49.862;9.908;2022-11-20T03:18:36;50.28;;;22.23;;
64875;SDS011;51369;49.862;9.908;2022-11-20T03:21:01;50.67;;;23.77;;
64875;SDS011;51369;49.862;9.908;2022-11-20T03:23:28;46.20;;;21.63;;
64875;SDS011;51369;49.862;9.908;2022-11-20T03:25:54;48.78;;;23.23;;
64875;SDS011;51369;49.862;9.908;2022-11-20T03:28:19;46.92;;;21.92;;
64875;SDS011;51369;49.862;9.908;2022-11-20T03:30:45;54.28;;;23.67;;
64875;SDS011;51369;49.862;9.908;2022-11-20T03:33:10;46.97;;;21.52;;
64875;SDS011;51369;49.862;9.908;2022-11-20T03:35:35;50.67;;;23.30;;
64875;SDS011;51369;49.862;9.908;2022-11-20T03:38:01;44.08;;;21.50;;
64875;SDS011;51369;49.862;9.908;2022-11-20T03:40:26;48.15;;;23.13;;
64875;SDS011;51369;49.862;9.908;2022-11-20T03:42:51;44.35;;;22.08;;
64875;SDS011;51369;49.862;9.908;2022-11-20T03:45:17;46.85;;;22.52;;
64875;SDS011;51369;49.862;9.908;2022-11-20T03:47:43;45.22;;;22.15;;
64875;SDS011;51369;49.862;9.908;2022-11-20T03:50:10;44.45;;;20.85;;
64875;SDS011;51369;49.862;9.908;2022-11-20T03:52:40;48.72;;;22.35;;
64875;SDS011;51369;49.862;9.908;2022-11-20T03:55:07;50.67;;;22.15;;
64875;SDS011;51369;49.862;9.908;2022-11-20T03:57:33;43.53;;;21.45;;
64875;SDS011;51369;49.862;9.908;2022-11-20T03:59:58;45.83;;;23.23;;
64875;SDS011;51369;49.862;9.908;2022-11-20T04:02:24;54.03;;;23.90;;
64875;SDS011;51369;49.862;9.908;2022-11-20T04:04:49;50.47;;;22.73;;
64875;SDS011;51369;49.862;9.908;2022-11-20T04:07:15;47.10;;;22.67;;
64875;SDS011;51369;49.862;9.908;2022-11-20T04:09:40;50.60;;;23.27;;
64875;SDS011;51369;49.862;9.908;2022-11-20T04:12:05;47.60;;;22.25;;
64875;SDS011;51369;49.862;9.908;2022-11-20T04:14:31;47.88;;;22.85;;
64875;SDS011;51369;49.862;9.908;2022-11-20T04:16:56;46.17;;;21.70;;
64875;SDS011;51369;49.862;9.908;2022-11-20T04:19:22;46.78;;;24.02;;
64875;SDS011;51369;49.862;9.908;2022-11-20T04:21:47;43.60;;;21.77;;
64875;SDS011;51369;49.862;9.908;2022-11-20T04:24:12;45.67;;;21.13;;
64875;SDS011;51369;49.862;9.908;2022-11-20T04:26:38;46.75;;;21.67;;
64875;SDS011;51369;49.862;9.908;2022-11-20T04:29:04;44.40;;;20.98;;
64875;SDS011;51369;49.862;9.908;2022-11-20T04:31:33;48.00;;;22.70;;
64875;SDS011;51369;49.862;9.908;2022-11-20T04:34:04;46.03;;;22.63;;
64875;SDS011;51369;49.862;9.908;2022-11-20T04:36:31;35.42;;;16.30;;
64875;SDS011;51369;49.862;9.908;2022-11-20T04:38:57;44.90;;;21.23;;
64875;SDS011;51369;49.862;9.908;2022-11-20T04:41:25;46.10;;;21.75;;
64875;SDS011;51369;49.862;9.908;2022-11-20T04:43:54;49.08;;;23.70;;
64875;SDS011;51369;49.862;9.908;2022-11-20T04:46:25;44.40;;;21.80;;
64875;SDS011;51369;49.862;9.908;2022-11-20T04:48:51;44.92;;;21.85;;
64875;SDS011;51369;49.862;9.908;2022-11-20T04:51:17;48.33;;;21.50;;
64875;SDS011;51369;49.862;9.908;2022-11-20T04:53:42;50.05;;;23.98;;
64875;SDS011;51369;49.862;9.908;2022-11-20T04:56:09;45.35;;;23.63;;
64875;SDS011;51369;49.862;9.908;2022-11-20T04:58:36;47.03;;;22.88;;
64875;SDS011;51369;49.862;9.908;2022-11-20T05:01:05;52.95;;;23.42;;
64875;SDS011;51369;49.862;9.908;2022-11-20T05:03:31;44.60;;;22.05;;
64875;SDS011;51369;49.862;9.908;2022-11-20T05:05:59;44.22;;;21.80;;
64875;SDS011;51369;49.862;9.908;2022-11-20T05:08:25;45.10;;;21.88;;
64875;SDS011;51369;49.862;9.908;2022-11-20T05:10:51;47.80;;;22.40;;
64875;SDS011;51369;49.862;9.908;2022-11-20T05:13:16;45.20;;;22.30;;
64875;SDS011;51369;49.862;9.908;2022-11-20T05:15:41;50.78;;;23.40;;
64875;SDS011;51369;49.862;9.908;2022-11-20T05:18:07;50.05;;;23.15;;
64875;SDS011;51369;49.862;9.908;2022-11-20T05:20:32;46.00;;;23.23;;
64875;SDS011;51369;49.862;9.908;2022-11-20T05:22:58;48.75;;;24.27;;
64875;SDS011;51369;49.862;9.908;2022-11-20T05:25:23;43.78;;;21.58;;
64875;SDS011;51369;49.862;9.908;2022-11-20T05:27:49;49.60;;;23.40;;
64875;SDS011;51369;49.862;9.908;2022-11-20T05:30:14;46.20;;;22.05;;
64875;SDS011;51369;49.862;9.908;2022-11-20T05:32:40;48.90;;;23.23;;
64875;SDS011;51369;49.862;9.908;2022-11-20T05:35:06;47.75;;;22.92;;
64875;SDS011;51369;49.862;9.908;2022-11-20T05:37:31;49.83;;;23.48;;
64875;SDS011;51369;49.862;9.908;2022-11-20T05:39:57;50.13;;;22.88;;
64875;SDS011;51369;49.862;9.908;2022-11-20T05:42:22;47.67;;;23.10;;
64875;SDS011;51369;49.862;9.908;2022-11-20T05:45:00;50.95;;;21.90;;
64875;SDS011;51369;49.862;9.908;2022-11-20T05:47:27;47.38;;;22.88;;
64875;SDS011;51369;49.862;9.908;2022-11-20T05:49:56;51.47;;;23.30;;
64875;SDS011;51369;49.862;9.908;2022-11-20T05:52:21;51.88;;;23.33;;
64875;SDS011;51369;49.862;9.908;2022-11-20T05:54:46;53.80;;;23.80;;
64875;SDS011;51369;49.862;9.908;2022-11-20T05:57:12;54.22;;;23.85;;
64875;SDS011;51369;49.862;9.908;2022-11-20T05:59:37;50.00;;;23.52;;
64875;SDS011;51369;49.862;9.908;2022-11-20T06:02:03;49.88;;;22.10;;
64875;SDS011;51369;49.862;9.908;2022-11-20T06:04:28;52.65;;;23.35;;
64875;SDS011;51369;49.862;9.908;2022-11-20T06:06:53;46.60;;;21.60;;
64875;SDS011;51369;49.862;9.908;2022-11-20T06:09:19;46.97;;;21.75;;
64875;SDS011;51369;49.862;9.908;2022-11-20T06:11:44;47.00;;;21.83;;
64875;SDS011;51369;49.862;9.908;2022-11-20T06:14:09;49.70;;;22.55;;
64875;SDS011;51369;49.862;9.908;2022-11-20T06:16:35;49.42;;;21.38;;
64875;SDS011;51369;49.862;9.908;2022-11-20T06:19:02;42.83;;;20.17;;
64875;SDS011;51369;49.862;9.908;2022-11-20T06:21:27;45.33;;;21.30;;
64875;SDS011;51369;49.862;9.908;2022-11-20T06:23:53;40.03;;;21.25;;
64875;SDS011;51369;49.862;9.908;2022-11-20T06:26:19;44.38;;;20.95;;
64875;SDS011;51369;49.862;9.908;2022-11-20T06:28:47;43.97;;;21.73;;
64875;SDS011;51369;49.862;9.908;2022-11-20T06:31:13;48.20;;;22.63;;
64875;SDS011;51369;49.862;9.908;2022-11-20T06:33:39;48.83;;;22.02;;
64875;SDS011;51369;49.862;9.908;2022-11-20T06:36:05;44.70;;;21.92;;
64875;SDS011;51369;49.862;9.908;2022-11-20T06:38:31;54.15;;;23.00;;
64875;SDS011;51369;49.862;9.908;2022-11-20T06:40:56;51.80;;;23.25;;
64875;SDS011;51369;49.862;9.908;2022-11-20T06:43:22;54.70;;;22.90;;
64875;SDS011;51369;49.862;9.908;2022-11-20T06:45:55;44.67;;;21.45;;
64875;SDS011;51369;49.862;9.908;2022-11-20T06:48:22;50.83;;;22.13;;
64875;SDS011;51369;49.862;9.908;2022-11-20T06:50:48;52.63;;;23.05;;
64875;SDS011;51369;49.862;9.908;2022-11-20T06:53:14;54.53;;;23.55;;
64875;SDS011;51369;49.862;9.908;2022-11-20T06:55:42;51.75;;;23.50;;
64875;SDS011;51369;49.862;9.908;2022-11-20T06:58:09;60.45;;;24.02;;
64875;SDS011;51369;49.862;9.908;2022-11-20T07:00:35;57.63;;;25.77;;
64875;SDS011;51369;49.862;9.908;2022-11-20T07:03:03;56.90;;;23.48;;
64875;SDS011;51369;49.862;9.908;2022-11-20T07:05:29;56.95;;;24.63;;
64875;SDS011;51369;49.862;9.908;2022-11-20T07:07:58;58.25;;;26.33;;
64875;SDS011;51369;49.862;9.908;2022-11-20T07:10:24;54.25;;;23.92;;
64875;SDS011;51369;49.862;9.908;2022-11-20T07:12:50;63.35;;;24.98;;
64875;SDS011;51369;49.862;9.908;2022-11-20T07:15:17;57.38;;;24.80;;
64875;SDS011;51369;49.862;9.908;2022-11-20T07:17:43;57.83;;;24.85;;
64875;SDS011;51369;49.862;9.908;2022-11-20T07:20:08;63.70;;;24.90;;
64875;SDS011;51369;49.862;9.908;2022-11-20T07:22:34;68.50;;;26.50;;
64875;SDS011;51369;49.862;9.908;2022-11-20T07:25:00;61.22;;;24.98;;
64875;SDS011;51369;49.862;9.908;2022-11-20T07:27:26;55.47;;;23.10;;
64875;SDS011;51369;49.862;9.908;2022-11-20T07:29:52;56.40;;;23.23;;
64875;SDS011;51369;49.862;9.908;2022-11-20T07:32:17;54.97;;;22.92;;
64875;SDS011;51369;49.862;9.908;2022-11-20T07:34:43;62.85;;;24.27;;
64875;SDS011;51369;49.862;9.908;2022-11-20T07:37:08;59.53;;;25.67;;
64875;SDS011;51369;49.862;9.908;2022-11-20T07:39:34;62.88;;;24.10;;
64875;SDS011;51369;49.862;9.908;2022-11-20T07:41:59;62.15;;;25.10;;
64875;SDS011;51369;49.862;9.908;2022-11-20T07:44:24;59.17;;;24.85;;
64875;SDS011;51369;49.862;9.908;2022-11-20T07:46:50;59.00;;;23.60;;
64875;SDS011;51369;49.862;9.908;2022-11-20T07:49:15;59.50;;;23.55;;
64875;SDS011;51369;49.862;9.908;2022-11-20T07:51:40;54.08;;;22.70;;
64875;SDS011;51369;49.862;9.908;2022-11-20T07:54:06;59.25;;;24.23;;
64875;SDS011;51369;49.862;9.908;2022-11-20T07:56:31;61.78;;;23.00;;
64875;SDS011;51369;49.862;9.908;2022-11-20T07:58:57;60.25;;;24.58;;
64875;SDS011;51369;49.862;9.908;2022-11-20T08:01:22;62.00;;;23.58;;
64875;SDS011;51369;49.862;9.908;2022-11-20T08:03:48;57.35;;;24.10;;
64875;SDS011;51369;49.862;9.908;2022-11-20T08:06:13;56.60;;;24.13;;
64875;SDS011;51369;49.862;9.908;2022-11-20T08:08:39;53.35;;;22.70;;
64875;SDS011;51369;49.862;9.908;2022-11-20T08:11:05;57.00;;;23.15;;
64875;SDS011;51369;49.862;9.908;2022-11-20T08:13:49;60.50;;;24.75;;
64875;SDS011;51369;49.862;9.908;2022-11-20T08:16:34;60.88;;;21.67;;
64875;SDS011;51369;49.862;9.908;2022-11-20T08:18:59;61.53;;;24.25;;
64875;SDS011;51369;49.862;9.908;2022-11-20T08:21:24;70.07;;;27.08;;
64875;SDS011;51369;49.862;9.908;2022-11-20T08:23:50;53.88;;;22.88;;
64875;SDS011;51369;49.862;9.908;2022-11-20T08:26:16;57.20;;;22.00;;
64875;SDS011;51369;49.862;9.908;2022-11-20T08:28:41;46.25;;;19.58;;
64875;SDS011;51369;49.862;9.908;2022-11-20T08:31:06;54.42;;;22.10;;
64875;SDS011;51369;49.862;9.908;2022-11-20T08:33:32;47.65;;;20.42;;
64875;SDS011;51369;49.862;9.908;2022-11-20T08:36:01;49.13;;;21.65;;
64875;SDS011;51369;49.862;9.908;2022-11-20T08:38:28;53.80;;;21.05;;
64875;SDS011;51369;49.862;9.908;2022-11-20T08:41:00;53.35;;;20.20;;
64875;SDS011;51369;49.862;9.908;2022-11-20T08:43:46;46.30;;;19.38;;
64875;SDS011;51369;49.862;9.908;2022-11-20T08:46:11;48.78;;;19.05;;
64875;SDS011;51369;49.862;9.908;2022-11-20T08:48:37;48.85;;;20.08;;
64875;SDS011;51369;49.862;9.908;2022-11-20T08:51:03;53.25;;;19.35;;
64875;SDS011;51369;49.862;9.908;2022-11-20T08:53:28;45.13;;;19.85;;
64875;SDS011;51369;49.862;9.908;2022-11-20T08:55:54;47.03;;;18.25;;
64875;SDS011;51369;49.862;9.908;2022-11-20T08:58:21;50.97;;;19.70;;
64875;SDS011;51369;49.862;9.908;2022-11-20T09:00:47;47.67;;;20.42;;
64875;SDS011;51369;49.862;9.908;2022-11-20T09:03:12;44.65;;;18.75;;
64875;SDS011;51369;49.862;9.908;2022-11-20T09:05:38;47.15;;;19.75;;
64875;SDS011;51369;49.862;9.908;2022-11-20T09:08:03;42.70;;;18.75;;
64875;SDS011;51369;49.862;9.908;2022-11-20T09:10:29;53.30;;;21.85;;
64875;SDS011;51369;49.862;9.908;2022-11-20T09:12:54;44.20;;;19.23;;
64875;SDS011;51369;49.862;9.908;2022-11-20T09:15:20;51.10;;;20.33;;
64875;SDS011;51369;49.862;9.908;2022-11-20T09:17:56;49.55;;;20.33;;
64875;SDS011;51369;49.862;9.908;2022-11-20T09:20:23;48.75;;;18.60;;
64875;SDS011;51369;49.862;9.908;2022-11-20T09:22:49;50.22;;;20.98;;
64875;SDS011;51369;49.862;9.908;2022-11-20T09:25:15;40.78;;;17.33;;
64875;SDS011;51369;49.862;9.908;2022-11-20T09:27:40;52.35;;;19.98;;
64875;SDS011;51369;49.862;9.908;2022-11-20T09:30:11;53.70;;;20.55;;
64875;SDS011;51369;49.862;9.908;2022-11-20T09:32:40;51.78;;;19.25;;
64875;SDS011;51369;49.862;9.908;2022-11-20T09:35:06;44.70;;;18.83;;
64875;SDS011;51369;49.862;9.908;2022-11-20T09:37:32;45.13;;;19.45;;
64875;SDS011;51369;49.862;9.908;2022-11-20T09:39:58;39.72;;;17.45;;
64875;SDS011;51369;49.862;9.908;2022-11-20T09:48:00;31.75;;;14.52;;
64875;SDS011;51369;49.862;9.908;2022-11-20T09:56:26;30.98;;;13.98;;
64875;SDS011;51369;49.862;9.908;2022-11-20T09:58:54;30.88;;;13.85;;
64875;SDS011;51369;49.862;9.908;2022-11-20T10:01:32;33.50;;;13.82;;
64875;SDS011;51369;49.862;9.908;2022-11-20T10:06:41;32.13;;;13.60;;
64875;SDS011;51369;49.862;9.908;2022-11-20T10:22:43;33.45;;;14.77;;
64875;SDS011;51369;49.862;9.908;2022-11-20T10:31:14;41.47;;;15.63;;
64875;SDS011;51369;49.862;9.908;2022-11-20T10:33:51;38.88;;;14.32;;
64875;SDS011;51369;49.862;9.908;2022-11-20T10:36:36;38.55;;;14.98;;
64875;SDS011;51369;49.862;9.908;2022-11-20T10:41:42;46.35;;;16.40;;
64875;SDS011;51369;49.862;9.908;2022-11-20T10:44:16;40.28;;;15.52;;
64875;SDS011;51369;49.862;9.908;2022-11-20T10:47:08;43.92;;;16.23;;
64875;SDS011;51369;49.862;9.908;2022-11-20T10:49:38;52.63;;;16.38;;
64875;SDS011;51369;49.862;9.908;2022-11-20T10:55:25;45.67;;;15.63;;
64875;SDS011;51369;49.862;9.908;2022-11-20T11:00:26;43.63;;;15.32;;
64875;SDS011;51369;49.862;9.908;2022-11-20T11:02:53;40.17;;;14.50;;
64875;SDS011;51369;49.862;9.908;2022-11-20T11:07:45;38.88;;;13.88;;
64875;SDS011;51369;49.862;9.908;2022-11-20T11:10:21;39.88;;;14.65;;
64875;SDS011;51369;49.862;9.908;2022-11-20T11:12:50;34.70;;;14.23;;
64875;SDS011;51369;49.862;9.908;2022-11-20T11:15:29;37.65;;;14.85;;
64875;SDS011;51369;49.862;9.908;2022-11-20T11:18:01;40.20;;;14.52;;
64875;SDS011;51369;49.862;9.908;2022-11-20T11:20:27;37.38;;;15.82;;
64875;SDS011;51369;49.862;9.908;2022-11-20T11:22:57;35.85;;;14.50;;
64875;SDS011;51369;49.862;9.908;2022-11-20T11:25:25;43.58;;;15.90;;
64875;SDS011;51369;49.862;9.908;2022-11-20T11:27:53;39.08;;;16.63;;
64875;SDS011;51369;49.862;9.908;2022-11-20T11:30:21;39.65;;;15.60;;
64875;SDS011;51369;49.862;9.908;2022-11-20T11:32:48;44.85;;;15.32;;
64875;SDS011;51369;49.862;9.908;2022-11-20T11:37:50;43.58;;;16.35;;
64875;SDS011;51369;49.862;9.908;2022-11-20T11:40:19;47.85;;;19.17;;
64875;SDS011;51369;49.862;9.908;2022-11-20T11:42:48;50.72;;;22.02;;
64875;SDS011;51369;49.862;9.908;2022-11-20T11:45:18;44.45;;;19.13;;
64875;SDS011;51369;49.862;9.908;2022-11-20T12:00:58;42.45;;;17.02;;
64875;SDS011;51369;49.862;9.908;2022-11-20T12:03:32;47.00;;;19.17;;
64875;SDS011;51369;49.862;9.908;2022-11-20T12:06:01;42.70;;;18.40;;
64875;SDS011;51369;49.862;9.908;2022-11-20T12:08:44;40.60;;;16.45;;
64875;SDS011;51369;49.862;9.908;2022-11-20T12:16:28;36.42;;;16.30;;
64875;SDS011;51369;49.862;9.908;2022-11-20T12:19:00;32.38;;;16.80;;
64875;SDS011;51369;49.862;9.908;2022-11-20T12:21:31;45.33;;;20.45;;
64875;SDS011;51369;49.862;9.908;2022-11-20T12:24:02;36.97;;;18.35;;
64875;SDS011;51369;49.862;9.908;2022-11-20T12:27:01;37.75;;;17.45;;
64875;SDS011;51369;49.862;9.908;2022-11-20T12:37:49;32.65;;;15.77;;
64875;SDS011;51369;49.862;9.908;2022-11-20T12:46:18;32.90;;;14.23;;
64875;SDS011;51369;49.862;9.908;2022-11-20T12:51:58;36.72;;;15.05;;
64875;SDS011;51369;49.862;9.908;2022-11-20T12:57:43;27.65;;;13.15;;
64875;SDS011;51369;49.862;9.908;2022-11-20T13:00:16;36.92;;;18.92;;
64875;SDS011;51369;49.862;9.908;2022-11-20T13:03:06;29.13;;;14.55;;
64875;SDS011;51369;49.862;9.908;2022-11-20T13:08:39;26.48;;;13.23;;
64875;SDS011;51369;49.862;9.908;2022-11-20T13:11:11;27.30;;;12.23;;
64875;SDS011;51369;49.862;9.908;2022-11-20T13:19:20;24.23;;;12.48;;
64875;SDS011;51369;49.862;9.908;2022-11-20T13:21:47;24.10;;;12.65;;
64875;SDS011;51369;49.862;9.908;2022-11-20T13:24:22;28.48;;;12.48;;
64875;SDS011;51369;49.862;9.908;2022-11-20T13:27:33;26.95;;;12.35;;
64875;SDS011;51369;49.862;9.908;2022-11-20T13:29:34;24.25;;;13.02;;
64875;SDS011;51369;49.862;9.908;2022-11-20T13:32:14;27.90;;;12.35;;
64875;SDS011;51369;49.862;9.908;2022-11-20T13:34:55;25.80;;;12.38;;
64875;SDS011;51369;49.862;9.908;2022-11-20T13:42:33;28.20;;;15.40;;
64875;SDS011;51369;49.862;9.908;2022-11-20T13:47:52;31.38;;;15.68;;
64875;SDS011;51369;49.862;9.908;2022-11-20T13:50:19;30.98;;;16.17;;
64875;SDS011;51369;49.862;9.908;2022-11-20T13:53:22;31.48;;;14.93;;
64875;SDS011;51369;49.862;9.908;2022-11-20T13:59:11;38.83;;;17.40;;
64875;SDS011;51369;49.862;9.908;2022-11-20T14:01:51;32.92;;;16.40;;
64875;SDS011;51369;49.862;9.908;2022-11-20T14:04:20;33.40;;;15.55;;
64875;SDS011;51369;49.862;9.908;2022-11-20T14:06:51;34.00;;;14.45;;
64875;SDS011;51369;49.862;9.908;2022-11-20T14:09:31;23.45;;;12.77;;
64875;SDS011;51369;49.862;9.908;2022-11-20T14:11:57;28.48;;;13.70;;
64875;SDS011;51369;49.862;9.908;2022-11-20T14:14:24;25.90;;;13.77;;
64875;SDS011;51369;49.862;9.908;2022-11-20T14:16:52;30.85;;;14.65;;
64875;SDS011;51369;49.862;9.908;2022-11-20T14:19:23;26.42;;;12.48;;
64875;SDS011;51369;49.862;9.908;2022-11-20T14:21:54;32.03;;;16.17;;
64875;SDS011;51369;49.862;9.908;2022-11-20T14:24:32;25.38;;;12.70;;
64875;SDS011;51369;49.862;9.908;2022-11-20T14:26:58;29.25;;;15.25;;
64875;SDS011;51369;49.862;9.908;2022-11-20T14:29:27;27.13;;;15.50;;
64875;SDS011;51369;49.862;9.908;2022-11-20T14:31:54;23.02;;;13.23;;
64875;SDS011;51369;49.862;9.908;2022-11-20T14:34:22;25.60;;;12.95;;
64875;SDS011;51369;49.862;9.908;2022-11-20T14:36:52;24.15;;;13.13;;
64875;SDS011;51369;49.862;9.908;2022-11-20T14:39:22;24.85;;;12.70;;
64875;SDS011;51369;49.862;9.908;2022-11-20T14:41:54;23.17;;;12.20;;
64875;SDS011;51369;49.862;9.908;2022-11-20T14:44:20;27.30;;;12.57;;
64875;SDS011;51369;49.862;9.908;2022-11-20T14:46:48;21.92;;;11.88;;
64875;SDS011;51369;49.862;9.908;2022-11-20T14:49:14;20.23;;;11.07;;
64875;SDS011;51369;49.862;9.908;2022-11-20T14:51:39;20.88;;;11.70;;
64875;SDS011;51369;49.862;9.908;2022-11-20T14:54:10;22.40;;;11.50;;
64875;SDS011;51369;49.862;9.908;2022-11-20T14:56:41;22.73;;;11.77;;
64875;SDS011;51369;49.862;9.908;2022-11-20T14:59:07;22.67;;;11.98;;
64875;SDS011;51369;49.862;9.908;2022-11-20T15:01:34;24.42;;;12.15;;
64875;SDS011;51369;49.862;9.908;2022-11-20T15:04:07;23.02;;;12.95;;
64875;SDS011;51369;49.862;9.908;2022-11-20T15:06:36;23.55;;;11.70;;
64875;SDS011;51369;49.862;9.908;2022-11-20T15:09:03;23.80;;;11.65;;
64875;SDS011;51369;49.862;9.908;2022-11-20T15:11:31;22.40;;;12.43;;
64875;SDS011;51369;49.862;9.908;2022-11-20T15:14:02;34.30;;;19.20;;
64875;SDS011;51369;49.862;9.908;2022-11-20T15:16:29;25.65;;;13.30;;
64875;SDS011;51369;49.862;9.908;2022-11-20T15:18:55;22.42;;;12.43;;
64875;SDS011;51369;49.862;9.908;2022-11-20T15:21:21;21.92;;;11.40;;
64875;SDS011;51369;49.862;9.908;2022-11-20T15:23:47;26.85;;;13.15;;
64875;SDS011;51369;49.862;9.908;2022-11-20T15:26:14;24.10;;;12.57;;
64875;SDS011;51369;49.862;9.908;2022-11-20T15:31:13;24.65;;;11.65;;
64875;SDS011;51369;49.862;9.908;2022-11-20T15:33:40;23.95;;;12.75;;
64875;SDS011;51369;49.862;9.908;2022-11-20T15:36:06;23.48;;;12.07;;
64875;SDS011;51369;49.862;9.908;2022-11-20T15:38:31;27.92;;;13.55;;
64875;SDS011;51369;49.862;9.908;2022-11-20T15:40:57;29.00;;;14.45;;
64875;SDS011;51369;49.862;9.908;2022-11-20T15:43:22;23.38;;;12.75;;
64875;SDS011;51369;49.862;9.908;2022-11-20T15:45:53;26.75;;;13.05;;
64875;SDS011;51369;49.862;9.908;2022-11-20T15:48:22;22.40;;;11.70;;
64875;SDS011;51369;49.862;9.908;2022-11-20T15:53:35;22.67;;;12.40;;
64875;SDS011;51369;49.862;9.908;2022-11-20T15:56:01;24.95;;;12.75;;
64875;SDS011;51369;49.862;9.908;2022-11-20T15:58:26;25.73;;;13.80;;
64875;SDS011;51369;49.862;9.908;2022-11-20T16:00:52;25.67;;;14.77;;
64875;SDS011;51369;49.862;9.908;2022-11-20T16:03:18;28.38;;;14.10;;
64875;SDS011;51369;49.862;9.908;2022-11-20T16:05:44;25.10;;;13.60;;
64875;SDS011;51369;49.862;9.908;2022-11-20T16:08:09;30.02;;;16.55;;
64875;SDS011;51369;49.862;9.908;2022-11-20T16:10:35;23.25;;;13.73;;
64875;SDS011;51369;49.862;9.908;2022-11-20T16:13:01;28.50;;;13.50;;
64875;SDS011;51369;49.862;9.908;2022-11-20T16:15:46;25.95;;;13.70;;
64875;SDS011;51369;49.862;9.908;2022-11-20T16:18:18;27.20;;;13.13;;
64875;SDS011;51369;49.862;9.908;2022-11-20T16:20:46;26.88;;;12.93;;
64875;SDS011;51369;49.862;9.908;2022-11-20T16:23:13;25.70;;;13.57;;
64875;SDS011;51369;49.862;9.908;2022-11-20T16:25:40;25.05;;;13.63;;
64875;SDS011;51369;49.862;9.908;2022-11-20T16:28:07;24.23;;;13.60;;
64875;SDS011;51369;49.862;9.908;2022-11-20T16:30:33;23.75;;;12.32;;